• Join FlightAware (Why Join?)
  • Login
  • US Flag 
02:34PM EDT


 

Airport Tracker/Info


-or-


 

Live Flight TrackerFlight Track Log ✈ VH-BGQ ✈ 20-Jun-2013 ✈ YPJT / JAD - YMDN

Flight Track Log - Related Links

Times and Time Zones

All times are in EDT time to prevent confusion due to time zone crossing. See the VH-BGQ flight status page for this flight to view local times or setup timezone preferences in your user account.

Time Position Orientation Groundspeed Altitude Reporting Facility
EDT Latitude Longitude Course Direction KTS MPH feet Rate Location/Type
09:07PM -32.0986 115.8830 207° Southwest 99 114 300  Level Aus ATC (RADAR)
09:08PM -32.1186 115.8708 207° Southwest 85 98 1,100 480 Climbing Aus ATC (RADAR)
09:08PM -32.1239 115.8891 109° East 100 115 1,100 -120 Level Aus ATC (RADAR)
09:09PM -32.1292 115.9270 99° East 118 136 1,000 -120 Descending Aus ATC (RADAR)
09:10PM -32.1317 115.9511 97° East 122 140 1,000 480 Level Aus ATC (RADAR)
09:11PM -32.1435 115.9867 111° Southeast 92 106 1,800 540 Climbing Aus ATC (RADAR)
09:12PM -32.1511 116.0086 112° Southeast 88 101 2,100 360 Climbing Aus ATC (RADAR)
09:13PM -32.1543 116.0417 96° East 97 112 2,600 240 Climbing Aus ATC (RADAR)
09:14PM -32.1543 116.0632 90° East 109 125 2,600 -120 Level Aus ATC (RADAR)
09:14PM -32.1536 116.0985 89° East 114 131 2,500  Descending Aus ATC (RADAR)
09:15PM -32.1517 116.1248 85° East 115 132 2,600  Climbing Aus ATC (RADAR)
09:17PM -32.1070 116.1535 29° Northeast 132 152 2,500 -60 Descending Aus ATC (RADAR)
09:17PM -32.0815 116.1700 29° Northeast 124 143 2,500  Level Aus ATC (RADAR)
09:18PM -32.0564 116.1874 31° Northeast 126 145 2,500  Level Aus ATC (RADAR)
09:19PM -32.0343 116.1981 22° Northeast 129 148 2,500  Level Aus ATC (RADAR)
09:20PM -32.0059 116.2158 28° Northeast 125 144 2,500  Level Aus ATC (RADAR)
09:21PM -31.9811 116.2382 37° Northeast 121 139 2,500 60 Level Aus ATC (RADAR)
09:21PM -31.9654 116.2529 38° Northeast 122 140 2,600  Climbing Aus ATC (RADAR)
09:22PM -31.9420 116.2733 37° Northeast 125 144 2,500  Descending Aus ATC (RADAR)
09:23PM -31.9192 116.2938 37° Northeast 123 142 2,600 -120 Climbing Aus ATC (RADAR)
09:24PM -31.9003 116.3098 36° Northeast 127 146 2,400  Descending Aus ATC (RADAR)
09:24PM -31.8792 116.3287 37° Northeast 125 144 2,600 240 Climbing Aus ATC (RADAR)
09:28PM -31.7813 116.4478 291° West 3,000 120 Climbing Aus ATC (Calculated)
09:28PM -31.7813 116.4478 81° East 3,000  Level Aus ATC (Calculated)
09:30PM -31.7731 116.5110 44° Northeast  Level Estimated
09:31PM -31.7457 116.5280 28° Northeast  Level FlightAware Approximate
09:32PM -31.7182 116.5451 28° Northeast  Level FlightAware Approximate
09:33PM -31.6787 116.5723 46° Northeast  Level FlightAware Approximate
09:33PM -31.7420 116.6403 321° Northwest 3,000  Level Aus ATC (Calculated)
09:34PM -31.6818 116.5832 84° East  Level FlightAware Approximate
09:34PM -31.7420 116.6403 76° East 3,000  Level Aus ATC (Calculated)
09:36PM -31.7306 116.6959 76° East  Level FlightAware Approximate
09:37PM -31.7233 116.7313 76° East  Level FlightAware Approximate
09:37PM -31.7272 116.7124 76° East 3,000  Level Aus ATC (Calculated)
09:38PM -31.7160 116.7668 76° East  Level FlightAware Approximate
09:39PM -31.7155 116.7692 76° East  Level FlightAware Approximate
09:40PM -31.7082 116.8046 76° East  Level FlightAware Approximate
09:41PM -31.7008 116.8401 76° East  Level FlightAware Approximate
09:42PM -31.6935 116.8755 76° East  Level FlightAware Approximate
09:43PM -31.6861 116.9109 76° East  Level FlightAware Approximate
09:44PM -31.6788 116.9464 76° East  Level FlightAware Approximate
09:45PM -31.6714 116.9818 76° East  Level FlightAware Approximate
09:46PM -31.6640 117.0172 76° East  Level FlightAware Approximate
09:47PM -31.6566 117.0526 76° East  Level FlightAware Approximate
09:48PM -31.6492 117.0880 76° East  Level FlightAware Approximate
09:49PM -31.6418 117.1234 76° East  Level FlightAware Approximate
09:50PM -31.6344 117.1588 76° East  Level FlightAware Approximate
09:51PM -31.6269 117.1942 76° East  Level FlightAware Approximate
09:51PM -31.6222 117.2167 360° North  Level Aus ATC (Calculated)
09:51PM -31.6222 117.2167 84° East  Level Aus ATC (Calculated)
09:53PM -31.6189 117.2549 84° East  Level FlightAware Approximate
09:54PM -31.6158 117.2911 84° East  Level FlightAware Approximate
09:55PM -31.6127 117.3274 84° East  Level FlightAware Approximate
09:56PM -31.6096 117.3636 84° East  Level FlightAware Approximate
09:57PM -31.6064 117.3999 84° East  Level FlightAware Approximate
09:58PM -31.6033 117.4361 84° East  Level FlightAware Approximate
09:59PM -31.6001 117.4724 84° East  Level FlightAware Approximate
10:00PM -31.5970 117.5086 84° East  Level FlightAware Approximate
10:01PM -31.5938 117.5449 84° East  Level FlightAware Approximate
10:02PM -31.5906 117.5811 84° East  Level FlightAware Approximate
10:03PM -31.5874 117.6174 84° East  Level FlightAware Approximate
10:04PM -31.5842 117.6536 84° East  Level FlightAware Approximate
10:05PM -31.5810 117.6898 84° East  Level FlightAware Approximate
10:06PM -31.5777 117.7261 84° East  Level FlightAware Approximate
10:07PM -31.5735 117.7737 84° East  Level FlightAware Approximate
10:08PM -31.5703 117.8099 84° East  Level FlightAware Approximate
10:09PM -31.5671 117.8462 84° East  Level Estimated
10:10PM -31.5640 117.8824 84° East  Level Estimated
10:11PM -31.5608 117.9186 84° East  Level Estimated
10:12PM -31.5577 117.9549 84° East  Level Estimated
10:13PM -31.5545 117.9911 84° East  Level Estimated
10:14PM -31.5513 118.0273 84° East  Level Estimated
10:15PM -31.5481 118.0636 84° East  Level Estimated
10:16PM -31.5449 118.0998 84° East  Level Estimated
10:17PM -31.5417 118.1360 84° East  Level Estimated
10:18PM -31.5385 118.1722 84° East  Level Estimated
10:19PM -31.5353 118.2085 84° East  Level Estimated
10:20PM -31.5320 118.2447 84° East  Level Estimated
10:21PM -31.5288 118.2809 84° East  Level Estimated
10:22PM -31.5233 118.3206 84° East  Level FlightAware Approximate
10:23PM -31.5251 118.3221 84° East  Level Estimated
10:24PM -31.5233 118.3206 84° East  Level FlightAware Approximate
10:25PM -31.5251 118.3221 84° East  Level Estimated
10:26PM -31.5233 118.3206 84° East  Level FlightAware Approximate
10:27PM -31.5251 118.3221 84° East  Level Estimated
10:28PM -31.5233 118.3206 84° East  Level FlightAware Approximate